| time (UTC) | temp F | wind direction | speed MPH | gust MPH | rain 1hr in | rain 24hr in | rain mn in | humidity % | barometer mb |
| 20260903220026 | 90 | 84 | 1.0 | 10.0 | 0.00 | 2.73 | 2.00 | 62 | 1013.2 |
| 20260903214534 | 90 | 146 | 1.0 | 9.0 | 0.00 | 2.73 | 2.00 | 62 | 1013.4 |
| 20260903213038 | 90 | 109 | 4.0 | 9.0 | 0.00 | 2.73 | 2.00 | 62 | 1013.5 |
| 20260903211534 | 90 | 111 | 2.0 | 13.0 | 0.00 | 2.73 | 2.00 | 63 | 1013.5 |
| 20260903210021 | 90 | 123 | 2.0 | 8.0 | 0.00 | 2.73 | 2.00 | 63 | 1013.5 |
| 20260903204525 | 89 | 87 | 3.0 | 10.0 | 0.00 | 2.73 | 2.00 | 63 | 1013.7 |
| 20260903203030 | 89 | 149 | 1.0 | 9.0 | 0.00 | 2.73 | 2.00 | 63 | 1013.8 |
| 20260903201514 | 89 | 128 | 1.0 | 6.0 | 0.00 | 2.73 | 2.00 | 64 | 1014.0 |
| 20260903200020 | 89 | 195 | 2.0 | 9.0 | 0.00 | 2.73 | 2.00 | 64 | 1014.3 |
| 20260903194523 | 88 | 144 | 2.0 | 10.0 | 0.00 | 2.73 | 2.00 | 65 | 1014.5 |
| 20260903193028 | 88 | 164 | 3.0 | 9.0 | 0.00 | 2.73 | 2.00 | 68 | 1014.8 |
| 20260903191538 | 87 | 104 | 0.0 | 7.0 | 0.00 | 2.73 | 2.00 | 69 | 1014.8 |
| 20260903190016 | 86 | 241 | 2.0 | 11.0 | 0.00 | 2.73 | 2.00 | 70 | 1015.0 |
| 20260903184518 | 87 | 265 | 1.0 | 10.0 | 0.00 | 2.73 | 2.00 | 70 | 1015.3 |
| 20260903183028 | 86 | 304 | 1.0 | 10.0 | 0.00 | 2.73 | 2.00 | 72 | 1015.7 |
| 20260903181528 | 85 | 157 | 4.0 | 12.0 | 0.00 | 2.73 | 2.00 | 72 | 1015.9 |
| 20260903180024 | 85 | 113 | 3.0 | 9.0 | 0.00 | 2.73 | 2.00 | 73 | 1016.2 |
| 20260903174514 | 84 | 137 | 1.0 | 9.0 | 0.00 | 2.73 | 2.00 | 76 | 1016.4 |
| 20260903173003 | 85 | 57 | 1.0 | 9.0 | 0.00 | 2.73 | 2.00 | 74 | 1016.7 |
| 20260903171503 | 85 | 120 | 2.0 | 7.0 | 0.00 | 2.73 | 2.00 | 76 | 1016.6 |
| 20260903170012 | 84 | 241 | 5.0 | 12.0 | 0.00 | 2.73 | 2.00 | 75 | 1016.7 |
| 20260903164513 | 84 | 263 | 2.0 | 12.0 | 0.00 | 2.73 | 2.00 | 76 | 1016.6 |
| 20260903163018 | 83 | 209 | 1.0 | 12.0 | 0.00 | 2.73 | 2.00 | 78 | 1016.7 |
| 20260903161518 | 82 | 144 | 1.0 | 12.0 | 0.00 | 2.73 | 2.00 | 80 | 1016.7 |
| 20260903160009 | 81 | 219 | 1.0 | 8.0 | 0.00 | 2.73 | 2.00 | 81 | 1016.7 |
| 20260903154509 | 81 | 107 | 6.0 | 14.0 | 0.00 | 2.73 | 2.00 | 81 | 1016.6 |
| 20260903153016 | 80 | 273 | 3.0 | 14.0 | 0.00 | 2.73 | 2.00 | 83 | 1016.5 |
| 20260903151523 | 81 | 279 | 1.0 | 10.0 | 0.00 | 2.73 | 2.00 | 84 | 1016.4 |
| 20260903150027 | 80 | 121 | 3.0 | 11.0 | 0.00 | 2.73 | 2.00 | 86 | 1016.4 |
| 20260903144514 | 78 | 131 | 0.0 | 9.0 | 0.00 | 2.73 | 2.00 | 90 | 1016.4 |
| 20260903143012 | 77 | 95 | 0.0 | 8.0 | 0.00 | 2.73 | 2.00 | 92 | 1016.4 |
| 20260903141517 | 76 | 150 | 0.0 | 8.0 | 0.01 | 2.73 | 2.00 | 93 | 1016.6 |
| 20260903140024 | 76 | 126 | 3.0 | 7.0 | 0.01 | 2.73 | 2.00 | 94 | 1016.6 |
| 20260903134525 | 75 | 163 | 2.0 | 8.0 | 0.01 | 2.73 | 2.00 | 94 | 1016.5 |
| 20260903133008 | 75 | 126 | 0.0 | 6.0 | 0.01 | 2.73 | 2.00 | 95 | 1016.4 |
| 20260903131516 | 74 | 232 | 0.0 | 6.0 | 0.00 | 2.72 | 1.99 | 94 | 1016.4 |
| 20260903130023 | 74 | 169 | 0.0 | 4.0 | 0.00 | 2.72 | 1.99 | 95 | 1016.8 |
| 20260903124527 | 74 | 136 | 1.0 | 6.0 | 0.00 | 2.72 | 1.99 | 94 | 1016.7 |
| 20260903123030 | 73 | 148 | 0.0 | 2.0 | 0.00 | 2.72 | 1.99 | 94 | 1016.5 |
| 20260903121522 | 73 | 134 | 0.0 | 1.0 | 0.00 | 2.72 | 1.99 | 94 | 1016.3 |
| 20260903120022 | 73 | 24 | 0.0 | 3.0 | 0.00 | 2.72 | 1.99 | 93 | 1016.0 |
| 20260903114526 | 73 | 256 | 1.0 | 6.0 | 0.00 | 2.72 | 1.99 | 93 | 1015.9 |
| 20260903113029 | 73 | 202 | 0.0 | 4.0 | 0.00 | 2.72 | 1.99 | 93 | 1016.0 |
| 20260903111529 | 74 | 161 | 2.0 | 7.0 | 0.00 | 2.72 | 1.99 | 93 | 1015.8 |
| 20260903110016 | 74 | 122 | 1.0 | 3.0 | 0.00 | 2.72 | 1.99 | 94 | 1015.7 |
| 20260903104518 | 74 | 82 | 0.0 | 4.0 | 0.00 | 2.72 | 1.99 | 95 | 1015.2 |
| 20260903103029 | 74 | 145 | 0.0 | 3.0 | 0.00 | 2.72 | 1.99 | 94 | 1015.1 |
| 20260903101526 | 74 | 205 | 0.0 | 5.0 | 0.03 | 2.72 | 1.99 | 94 | 1015.4 |
| 20260903100033 | 74 | 284 | 0.0 | 9.0 | 0.07 | 2.72 | 1.99 | 94 | 1015.6 |
| 20260903094530 | 74 | 339 | 1.0 | 14.0 | 0.12 | 2.72 | 1.99 | 94 | 1015.5 |
| 20260903093029 | 74 | 162 | 0.0 | 9.0 | 0.19 | 2.72 | 1.99 | 95 | 1015.5 |
| 20260903091528 | 74 | 143 | 2.0 | 10.0 | 0.24 | 2.69 | 1.96 | 95 | 1015.4 |
| 20260903090030 | 74 | 114 | 0.0 | 5.0 | 0.26 | 2.65 | 1.92 | 95 | 1015.4 |
| 20260903084518 | 74 | 215 | 1.0 | 6.0 | 0.27 | 2.60 | 1.87 | 95 | 1015.5 |
| 20260903083023 | 74 | 241 | 1.0 | 4.0 | 0.24 | 2.53 | 1.80 | 95 | 1015.3 |
| 20260903081526 | 74 | 319 | 2.0 | 5.0 | 0.24 | 2.45 | 1.72 | 95 | 1015.3 |
| 20260903080008 | 73 | 182 | 0.0 | 8.0 | 0.32 | 2.39 | 1.66 | 95 | 1015.5 |
| 20260903074514 | 73 | 123 | 4.0 | 14.0 | 0.42 | 2.33 | 1.60 | 94 | 1015.4 |
| 20260903073023 | 74 | 121 | 2.0 | 12.0 | 0.57 | 2.29 | 1.56 | 94 | 1015.4 |
| 20260903071527 | 74 | 130 | 4.0 | 16.0 | 0.71 | 2.21 | 1.48 | 94 | 1015.7 |
| 20260903070026 | 74 | 150 | 3.0 | 11.0 | 0.82 | 2.07 | 1.34 | 95 | 1015.8 |
| 20260903064510 | 75 | 161 | 6.0 | 19.0 | 0.94 | 1.91 | 1.17 | 95 | 1015.8 |
| 20260903063016 | 75 | 246 | 0.0 | 7.0 | 0.96 | 1.72 | 0.99 | 95 | 1015.5 |
| 20260903061533 | 75 | 143 | 1.0 | 19.0 | 0.77 | 1.50 | 0.77 | 95 | 1015.4 |
| 20260903060024 | 75 | 165 | 2.0 | 13.0 | 0.52 | 1.25 | 0.52 | 96 | 1015.4 |
| 20260903054530 | 76 | 136 | 3.0 | 15.0 | 0.24 | 0.97 | 0.24 | 95 | 1015.3 |
| 20260903053010 | 76 | 117 | 6.0 | 14.0 | 0.04 | 0.76 | 0.03 | 95 | 1015.2 |
| 20260903051515 | 76 | 70 | 3.0 | 10.0 | 0.02 | 0.73 | 0.00 | 95 | 1014.9 |
| 20260903050028 | 76 | 130 | 3.0 | 11.0 | 0.03 | 0.73 | 0.00 | 95 | 1015.0 |
| 20260903044527 | 75 | 185 | 4.0 | 10.0 | 0.05 | 0.73 | 0.73 | 95 | 1015.0 |
| 20260903043029 | 75 | 113 | 2.0 | 12.0 | 0.04 | 0.72 | 0.72 | 95 | 1015.1 |
| 20260903041536 | 75 | 97 | 4.0 | 11.0 | 0.06 | 0.71 | 0.71 | 95 | 1015.1 |
| 20260903040019 | 75 | 146 | 4.0 | 11.0 | 0.08 | 0.70 | 0.70 | 94 | 1015.1 |
| 20260903034523 | 75 | 120 | 5.0 | 13.0 | 0.09 | 0.68 | 0.68 | 94 | 1014.9 |
| 20260903033028 | 75 | 123 | 4.0 | 15.0 | 0.11 | 0.68 | 0.68 | 94 | 1014.5 |
| 20260903031529 | 75 | 114 | 1.0 | 8.0 | 0.10 | 0.65 | 0.65 | 94 | 1014.4 |
| 20260903030034 | 75 | 96 | 0.0 | 12.0 | 0.19 | 0.62 | 0.62 | 94 | 1014.6 |
| 20260903024518 | 75 | 150 | 6.0 | 15.0 | 0.31 | 0.58 | 0.58 | 94 | 1014.5 |
| 20260903023027 | 75 | 118 | 1.0 | 8.0 | 0.48 | 0.57 | 0.57 | 94 | 1014.4 |
| 20260903021529 | 75 | 109 | 1.0 | 6.0 | 0.48 | 0.55 | 0.55 | 93 | 1014.0 |
| 20260903020030 | 75 | 121 | 1.0 | 6.0 | 0.42 | 0.43 | 0.43 | 93 | 1013.9 |
| 20260903014520 | 75 | 76 | 2.0 | 8.0 | 0.28 | 0.28 | 0.28 | 92 | 1013.9 |
| 20260903013023 | 76 | 37 | 0.0 | 6.0 | 0.09 | 0.09 | 0.09 | 92 | 1013.5 |
| 20260903011527 | 76 | 51 | 1.0 | 4.0 | 0.07 | 0.07 | 0.07 | 91 | 1013.4 |
| 20260903010037 | 77 | 39 | 1.0 | 6.0 | 0.01 | 0.01 | 0.01 | 87 | 1013.6 |
| 20260903004511 | 78 | 128 | 1.0 | 9.0 | 0.00 | 0.00 | 0.00 | 84 | 1013.5 |
| 20260903003018 | 80 | 71 | 1.0 | 11.0 | 0.00 | 0.00 | 0.00 | 80 | 1013.4 |
| 20260903001523 | 80 | 102 | 2.0 | 11.0 | 0.00 | 0.00 | 0.00 | 80 | 1013.4 |
| 20260903000030 | 80 | 74 | 2.0 | 11.0 | 0.00 | 0.00 | 0.00 | 79 | 1013.4 |
| 20260902234534 | 79 | 142 | 2.0 | 8.0 | 0.00 | 0.00 | 0.00 | 80 | 1013.5 |
| 20260902233017 | 81 | 103 | 2.0 | 14.0 | 0.00 | 0.00 | 0.00 | 78 | 1013.7 |
| 20260902231539 | 82 | 125 | 6.0 | 14.0 | 0.00 | 0.00 | 0.00 | 74 | 1013.5 |
| 20260902230029 | 83 | 71 | 4.0 | 22.0 | 0.00 | 0.00 | 0.00 | 74 | 1013.3 |
| 20260902224530 | 83 | 20 | 3.0 | 14.0 | 0.00 | 0.00 | 0.00 | 73 | 1013.1 |
| 20260902223038 | 84 | 71 | 2.0 | 18.0 | 0.00 | 0.00 | 0.00 | 70 | 1013.3 |
| 20260902221534 | 84 | 206 | 7.0 | 20.0 | 0.00 | 0.00 | 0.00 | 70 | 1013.2 |